^^
Station Historical Data
Daily Summary for May 28, 2017 Units:  Metric    English   Both
« Previous Day
Next Day »
Daily Weekly Monthly Yearly Custom
  High: Low: Average:
Temperature: 20.9 °C 4.3 °C 9.4 °C
Dew Point: 1.2 °C -2.2 °C -0.8 °C
Humidity: 66% 22% 52%
Wind Speed: 13km/h 0km/h 0.8km/h
Wind Gust: 24.1km/h - -
Wind- - ESE
Pressure: 1028 hPa 1023.9 hPa -
Precipitation: 0 mm    
Historical Graphs
 
 
Tabular Data for May 28, 2017
Time Temperature Dew Point Pressure Wind Wind Speed Wind Gust Humidity Rainfall Rate (Hourly) solar Conditions
00:02 9.7 °C -0.5 °C 1025.3 hPa Calm     49% 0 mm 0.0 W/m2
00:07 9.6 °C 0 °C 1025.3 hPa Calm     51% 0 mm 0.0 W/m2
00:13 9.8 °C 0.4 °C 1025.3 hPa Calm     52% 0 mm 0.0 W/m2
00:18 10.1 °C 0.7 °C 1025.3 hPa Calm     52% 0 mm 0.0 W/m2
00:23 10.2 °C 0.8 °C 1025.3 hPa Calm     52% 0 mm 0.0 W/m2
00:29 10.1 °C 0.7 °C 1025.6 hPa Calm     52% 0 mm 0.0 W/m2
00:34 9.9 °C 0.5 °C 1025.6 hPa Calm     52% 0 mm 0.0 W/m2
00:39 9.6 °C 0.7 °C 1025.6 hPa Calm     54% 0 mm 0.0 W/m2
00:44 9.6 °C 0.7 °C 1025.3 hPa Calm     54% 0 mm 0.0 W/m2
00:49 9.6 °C 0.7 °C 1025.3 hPa Calm     54% 0 mm 0.0 W/m2
00:54 9.6 °C 0.5 °C 1025.6 hPa Calm     53% 0 mm 0.0 W/m2
00:59 9.2 °C 0.4 °C 1025.6 hPa Calm     54% 0 mm 0.0 W/m2
01:04 9 °C 0.9 °C 1025.6 hPa Calm     57% 0 mm 0.0 W/m2
01:15 9.5 °C 1.2 °C 1025.6 hPa Calm     56% 0 mm 0.0 W/m2
01:20 9.4 °C 1.1 °C 1025.6 hPa Calm     56% 0 mm 0.0 W/m2
01:25 9.1 °C 0.5 °C 1025.6 hPa Calm     55% 0 mm 0.0 W/m2
01:30 8.8 °C 0.7 °C 1025.6 hPa Calm     57% 0 mm 0.0 W/m2
01:36 8.6 °C 0.8 °C 1025.6 hPa Calm     58% 0 mm 0.0 W/m2
01:42 8.3 °C 0.8 °C 1025.6 hPa Calm     59% 0 mm 0.0 W/m2
01:51 8.7 °C 0.9 °C 1025.6 hPa Calm     58% 0 mm 0.0 W/m2
01:56 8.6 °C 0.3 °C 1025.6 hPa Calm     56% 0 mm 0.0 W/m2
02:01 8.1 °C -0.4 °C 1025.6 hPa Calm     55% 0 mm 0.0 W/m2
02:06 7.5 °C -0.7 °C 1025.6 hPa Calm     56% 0 mm 0.0 W/m2
02:17 6.6 °C -1.1 °C 1025.6 hPa Calm     58% 0 mm 0.0 W/m2
02:22 6.4 °C -0.8 °C 1025.6 hPa Calm     60% 0 mm 0.0 W/m2
02:27 6.3 °C -0.9 °C 1025.6 hPa Calm     60% 0 mm 0.0 W/m2
02:32 6.2 °C -1.2 °C 1025.6 hPa Calm     59% 0 mm 0.0 W/m2
02:37 6.1 °C -0.9 °C 1025.6 hPa Calm     61% 0 mm 0.0 W/m2
02:42 6.2 °C -0.8 °C 1025.6 hPa Calm     61% 0 mm 0.0 W/m2
02:52 6.2 °C -0.8 °C 1025.6 hPa Calm     61% 0 mm 0.0 W/m2
02:57 6.2 °C -0.8 °C 1025.6 hPa Calm     61% 0 mm 0.0 W/m2
03:03 6.1 °C -0.9 °C 1025.6 hPa Calm     61% 0 mm 0.0 W/m2
03:08 5.9 °C -1.3 °C 1025.6 hPa Calm     60% 0 mm 0.0 W/m2
03:13 5.7 °C -1.2 °C 1025.6 hPa Calm     61% 0 mm 0.0 W/m2
03:18 5.6 °C -1.1 °C 1025.6 hPa Calm     62% 0 mm 0.0 W/m2
03:24 5.5 °C -0.8 °C 1025.6 hPa Calm     64% 0 mm 0.0 W/m2
03:29 5.4 °C -1.5 °C 1025.6 hPa Calm     61% 0 mm 0.0 W/m2
03:34 5.3 °C -1.6 °C 1025.6 hPa Calm     61% 0 mm 0.0 W/m2
03:39 5.3 °C -1.6 °C 1025.6 hPa Calm     61% 0 mm 0.0 W/m2
03:44 5.3 °C -1.8 °C 1025.6 hPa Calm     60% 0 mm 0.0 W/m2
03:50 5.2 °C -1.7 °C 1025.6 hPa Calm     61% 0 mm 0.0 W/m2
03:55 5.3 °C -1.4 °C 1025.6 hPa Calm     62% 0 mm 0.0 W/m2
04:00 5.3 °C -1.8 °C 1025.6 hPa Calm     60% 0 mm 0.0 W/m2
04:11 5.2 °C -1.7 °C 1025.6 hPa Calm     61% 0 mm 0.0 W/m2
04:16 5.2 °C -1.7 °C 1025.6 hPa Calm     61% 0 mm 0.0 W/m2
04:26 5 °C -1.9 °C 1025.6 hPa Calm     61% 0 mm 0.0 W/m2
04:31 4.8 °C -1.9 °C 1025.6 hPa Calm     62% 0 mm 0.0 W/m2
04:36 4.9 °C -1.1 °C 1025.6 hPa Calm     65% 0 mm 0.0 W/m2
04:41 5.1 °C -1.4 °C 1025.6 hPa Calm     63% 0 mm 0.0 W/m2
04:46 5.2 °C -1.5 °C 1025.6 hPa Calm     62% 0 mm 0.0 W/m2
04:51 5.1 °C -1.1 °C 1025.6 hPa Calm     64% 0 mm 0.0 W/m2
04:57 4.9 °C -2 °C 1025.6 hPa Calm     61% 0 mm 0.0 W/m2
05:02 4.8 °C -2.1 °C 1026 hPa Calm     61% 0 mm 0.0 W/m2
05:07 4.7 °C -2 °C 1026 hPa Calm     62% 0 mm 0.0 W/m2
05:12 4.8 °C -2.1 °C 1026 hPa Calm     61% 0 mm 0.0 W/m2
05:17 4.7 °C -2 °C 1026 hPa Calm     62% 0 mm 0.0 W/m2
05:22 4.8 °C -1.9 °C 1026 hPa Calm     62% 0 mm 0.0 W/m2
05:28 4.7 °C -2 °C 1026 hPa Calm     62% 0 mm 0.0 W/m2
05:33 4.6 °C -2.1 °C 1026 hPa Calm     62% 0 mm 0.0 W/m2
05:43 4.4 °C -2.2 °C 1026.3 hPa Calm     62% 0 mm 0.0 W/m2
05:48 4.4 °C -2 °C 1026.3 hPa Calm     63% 0 mm 0.0 W/m2
05:53 4.4 °C -2 °C 1026.3 hPa Calm     63% 0 mm 0.0 W/m2
05:59 4.4 °C -2.2 °C 1026.3 hPa Calm     62% 0 mm 0.0 W/m2
06:04 4.3 °C -1.9 °C 1026.3 hPa Calm     64% 0 mm 0.0 W/m2
06:10 4.3 °C -1.5 °C 1026.3 hPa Calm     66% 0 mm 0.0 W/m2
06:20 5.7 °C -0.4 °C 1026.6 hPa Calm     65% 0 mm 0.0 W/m2
06:26 5.9 °C -0.8 °C 1026.6 hPa Calm     62% 0 mm 0.0 W/m2
06:31 5.9 °C -1 °C 1026.6 hPa Calm     61% 0 mm 0.0 W/m2
06:41 5.7 °C -0.6 °C 1026.6 hPa Calm     64% 0 mm 9.0 W/m2
06:46 5.8 °C -0.7 °C 1026.6 hPa Calm     63% 0 mm 11.0 W/m2
06:56 6.4 °C -0.6 °C 1026.6 hPa Calm     61% 0 mm 12.0 W/m2
07:01 6.6 °C -0.4 °C 1026.6 hPa Calm     61% 0 mm 14.0 W/m2
07:10 7.1 °C -0.1 °C 1026.6 hPa Calm     60% 0 mm 16.0 W/m2
07:22 7.8 °C -0.2 °C 1027 hPa Calm     57% 0 mm 23.0 W/m2
07:37 9.2 °C 0.1 °C 1027 hPa Calm     53% 0 mm 141.0 W/m2
07:53 10.3 °C 0.3 °C 1027 hPa Calm     50% 0 mm 202.0 W/m2
08:08 12.1 °C 0.5 °C 1027.3 hPa Calm     45% 0 mm 255.0 W/m2
08:33 14 °C -0.5 °C 1027.3 hPa Calm   9.7 km/h 37% 0 mm 323.0 W/m2
08:39 14.1 °C -0.8 °C 1027.7 hPa SSE 4.7 km/h 12.9 km/h 36% 0 mm 348.0 W/m2
08:58 14.1 °C -0.4 °C 1027.7 hPa SE 9.7 km/h 16.1 km/h 37% 0 mm 388.0 W/m2
09:04 14.3 °C -0.2 °C 1028 hPa SE 3.2 km/h 6.4 km/h 37% 0 mm 415.0 W/m2
09:35 14.6 °C 0.1 °C 1028 hPa Calm   9.7 km/h 37% 0 mm 471.0 W/m2
09:49 14.8 °C -0.1 °C 1028 hPa Calm   8 km/h 36% 0 mm 503.0 W/m2
10:10 15.6 °C -0.2 °C 1027.7 hPa SE 6.4 km/h 16.1 km/h 34% 0 mm 538.0 W/m2
10:50 16.8 °C -0.4 °C 1027.7 hPa Calm   8 km/h 31% 0 mm 592.0 W/m2
11:00 17.1 °C -0.2 °C 1027.3 hPa SE 4.7 km/h 8 km/h 31% 0 mm 601.0 W/m2
11:10 17.2 °C -0.5 °C 1027.3 hPa SE 3.2 km/h 8 km/h 30% 0 mm 613.0 W/m2
11:33 18.3 °C -1 °C 1026.6 hPa SE 3.2 km/h 12.9 km/h 27% 0 mm 621.0 W/m2
11:43 18.3 °C -1.5 °C 1026.3 hPa SE 3.2 km/h 16.1 km/h 26% 0 mm 621.0 W/m2
12:01 18.8 °C -1.7 °C 1026 hPa Calm   11.3 km/h 25% 0 mm 621.0 W/m2
12:13 18.9 °C -1.6 °C 1026 hPa Calm   8 km/h 25% 0 mm 617.0 W/m2
12:38 19.1 °C -1.4 °C 1025.6 hPa ESE 6.4 km/h 14.5 km/h 25% 0 mm 601.0 W/m2
13:17 19.8 °C -1.4 °C 1024.6 hPa ESE 1.4 km/h 12.9 km/h 24% 0 mm 555.0 W/m2
13:28 19.9 °C -1.3 °C 1024.6 hPa East 11.1 km/h 11.3 km/h 24% 0 mm 540.0 W/m2
13:38 20 °C -1.2 °C 1024.6 hPa East 7.9 km/h 12.9 km/h 24% 0 mm 522.0 W/m2
13:48 20 °C -1.8 °C 1024.3 hPa ENE 13 km/h 24.1 km/h 23% 0 mm 510.0 W/m2
14:01 20.4 °C -1.4 °C 1024.3 hPa Calm   12.9 km/h 23% 0 mm 478.0 W/m2
14:11 20.3 °C -1.5 °C 1023.9 hPa ENE 4.7 km/h 11.3 km/h 23% 0 mm 457.0 W/m2
14:23 20.4 °C -1.4 °C 1023.9 hPa Calm   8 km/h 23% 0 mm 439.0 W/m2
14:35 20.9 °C -1.6 °C 1023.9 hPa Calm   8 km/h 22% 0 mm 415.0 W/m2
14:56 20.9 °C -1.6 °C 1023.9 hPa ENE 1.4 km/h 8 km/h 22% 0 mm 345.0 W/m2
Canyon Roadhouse, Fishriver Canyon, Namibia
Compliments of Weather Underground - 2.25 mb